Wahpeton, MN

7:01 AM CDT on April 19, 2018 (GMT -0500)
Stern

Weather History for KBWP - June, 2013

Change the Weather History Date:

Friday, June 14, 2013

  Actual Average (KFFM) Record (KFFM)
Temperature  
Mean Temperature 71 °F -  
Max Temperature 80 °F 76 °F 93 °F (1987)
Min Temperature 62 °F 54 °F 34 °F (1969)
Cooling Degree Days 6    
Growing Degree Days 21 (Base 50)    
Moisture  
Dew Point 55 °F    
Average Humidity 59    
Maximum Humidity 72    
Minimum Humidity 39    
Precipitation  
Precipitation 0.00 in - - ()
Sea Level Pressure  
Sea Level Pressure 29.89 in    
Wind  
Wind Speed 13 mph (SE)    
Max Wind Speed 29 mph    
Max Gust Speed 37 mph    
Visibility 10 miles    
Events      
Averages and records for this station are not official NWS values.
T = Trace of Precipitation, MM = Missing Value Source: NWS Daily Summary

Daily Weather History Graph

Daily Weather History Graph

Search for Another Location

Airport or City:

Astronomy

Jun. 14, 2013 Rise Set
Actual Time 5:34 AM CDT 9:19 PM CDT
Civil Twilight 4:55 AM CDT 9:58 PM CDT
Nautical Twilight 4:02 AM CDT 10:50 PM CDT
Astronomical Twilight 2:49 AM CDT 12:04 AM CDT
Moon 11:27 AM CDT (6/14) 12:10 AM CDT (6/14)
Length of Visible Light 17h 03m
Length of Day
15h 45m
Waxing Crescent, 30% of the Moon is Illuminated
Jun 14
Waxing Crescent
Jun 16
First Quarter
Jun 23
Full
Jun 29
Last Quarter
Jul 8
New

Hourly Weather History & Observations

Time (CDT) Temp. Heat Index Dew Point Humidity Pressure Visibility Wind Dir Wind Speed Gust Speed Precip Events Conditions
12:15 AM 64.4 °F - 51.8 °F 64% 30.03 in 10.0 mi SE 8.1 mph - N/A   Clear
12:35 AM 66.2 °F - 51.8 °F 60% 30.04 in 10.0 mi SSE 8.1 mph - N/A   Clear
12:55 AM 68.0 °F - 51.8 °F 56% 30.05 in 10.0 mi SSE 9.2 mph - N/A   Clear
1:15 AM 68.0 °F - 50.0 °F 52% 30.03 in 10.0 mi SSE 9.2 mph - N/A   Clear
1:35 AM 66.2 °F - 51.8 °F 60% 30.01 in 10.0 mi SE 11.5 mph - N/A   Clear
1:55 AM 66.2 °F - 51.8 °F 60% 29.99 in 10.0 mi ESE 10.4 mph 16.1 mph N/A   Scattered Clouds
2:15 AM 64.4 °F - 51.8 °F 64% 29.98 in 10.0 mi SE 12.7 mph - N/A   Clear
2:35 AM 64.4 °F - 51.8 °F 64% 29.98 in 10.0 mi SE 9.2 mph - N/A   Scattered Clouds
2:55 AM 62.6 °F - 53.6 °F 72% 29.98 in 10.0 mi SE 9.2 mph - N/A   Scattered Clouds
3:15 AM 62.6 °F - 53.6 °F 72% 29.97 in 10.0 mi ESE 9.2 mph - N/A   Scattered Clouds
3:35 AM 62.6 °F - 53.6 °F 72% 29.97 in 10.0 mi ESE 8.1 mph - N/A   Clear
3:55 AM 62.6 °F - 53.6 °F 72% 29.97 in 10.0 mi SE 10.4 mph - N/A   Clear
4:15 AM 62.6 °F - 53.6 °F 72% 29.97 in 10.0 mi SE 10.4 mph - N/A   Clear
4:35 AM 62.6 °F - 53.6 °F 72% 29.96 in 10.0 mi ESE 9.2 mph - N/A   Clear
4:55 AM 62.6 °F - 53.6 °F 72% 29.96 in 10.0 mi ESE 8.1 mph - N/A   Clear
5:15 AM 62.6 °F - 53.6 °F 72% 29.96 in 10.0 mi ESE 8.1 mph - N/A   Clear
5:35 AM 62.6 °F - 53.6 °F 72% 29.95 in 10.0 mi ESE 8.1 mph - N/A   Clear
5:55 AM 62.6 °F - 53.6 °F 72% 29.97 in 10.0 mi SE 9.2 mph - N/A   Clear
6:15 AM 62.6 °F - 53.6 °F 72% 29.97 in 10.0 mi SE 9.2 mph - N/A   Scattered Clouds
6:35 AM 62.6 °F - 53.6 °F 72% 29.97 in 10.0 mi ESE 10.4 mph - N/A   Overcast
6:55 AM 62.6 °F - 53.6 °F 72% 29.97 in 10.0 mi SE 11.5 mph 17.3 mph N/A   Overcast
7:15 AM 62.6 °F - 51.8 °F 68% 29.97 in 10.0 mi SE 12.7 mph - N/A   Scattered Clouds
7:35 AM 62.6 °F - 53.6 °F 72% 29.97 in 10.0 mi SE 10.4 mph - N/A   Scattered Clouds
7:55 AM 64.4 °F - 53.6 °F 68% 29.98 in 10.0 mi SE 10.4 mph - N/A   Mostly Cloudy
8:15 AM 64.4 °F - 53.6 °F 68% 29.99 in 10.0 mi SE 9.2 mph 17.3 mph N/A   Overcast
8:35 AM 64.4 °F - 53.6 °F 68% 29.98 in 10.0 mi SE 13.8 mph - N/A   Overcast
8:55 AM 66.2 °F - 53.6 °F 64% 29.96 in 10.0 mi SE 12.7 mph - N/A   Mostly Cloudy
9:15 AM 68.0 °F - 53.6 °F 60% 29.95 in 10.0 mi SE 13.8 mph - N/A   Overcast
9:35 AM 68.0 °F - 53.6 °F 60% 29.93 in 10.0 mi SE 16.1 mph 20.7 mph N/A   Mostly Cloudy
9:55 AM 69.8 °F - 53.6 °F 56% 29.93 in 10.0 mi SE 15.0 mph 19.6 mph N/A   Scattered Clouds
10:15 AM 69.8 °F - 53.6 °F 56% 29.94 in 10.0 mi SE 15.0 mph 21.9 mph N/A   Scattered Clouds
10:35 AM 69.8 °F - 53.6 °F 56% 29.93 in 10.0 mi SE 16.1 mph - N/A   Scattered Clouds
10:55 AM 69.8 °F - 53.6 °F 56% 29.92 in 10.0 mi SE 17.3 mph 21.9 mph N/A   Scattered Clouds
11:15 AM 69.8 °F - 53.6 °F 56% 29.90 in 10.0 mi SE 19.6 mph 24.2 mph N/A   Clear
11:35 AM 69.8 °F - 55.4 °F 60% 29.89 in 10.0 mi SE 15.0 mph 23.0 mph N/A   Clear
11:55 AM 73.4 °F - 55.4 °F 53% 29.90 in 10.0 mi SE 17.3 mph 25.3 mph N/A   Clear
12:15 PM 75.2 °F - 55.4 °F 50% 29.89 in 10.0 mi SE 20.7 mph 26.5 mph N/A   Clear
12:35 PM 77.0 °F - 53.6 °F 44% 29.83 in 10.0 mi SE 28.8 mph 36.8 mph N/A   Clear
12:55 PM 77.0 °F - 53.6 °F 44% 29.86 in 10.0 mi SSE 24.2 mph 33.4 mph N/A   Scattered Clouds
1:15 PM 77.0 °F - 53.6 °F 44% 29.86 in 10.0 mi SSE 24.2 mph 32.2 mph N/A   Mostly Cloudy
1:35 PM 77.0 °F - 53.6 °F 44% 29.86 in 10.0 mi SSE 24.2 mph 32.2 mph N/A   Overcast
1:55 PM 78.8 °F - 55.4 °F 44% 29.85 in 10.0 mi SSE 21.9 mph 28.8 mph N/A   Mostly Cloudy
2:15 PM 78.8 °F - 53.6 °F 42% 29.82 in 10.0 mi SSE 24.2 mph 29.9 mph N/A   Scattered Clouds
2:35 PM 80.6 °F 80.3 °F 53.6 °F 39% 29.81 in 10.0 mi SSE 23.0 mph 31.1 mph N/A   Clear
2:55 PM 80.6 °F 80.5 °F 55.4 °F 42% 29.80 in 10.0 mi SSE 21.9 mph 34.5 mph N/A   Clear
3:15 PM 80.6 °F 80.5 °F 55.4 °F 42% 29.80 in 10.0 mi SSE 21.9 mph 32.2 mph N/A   Clear
3:35 PM 80.6 °F 80.5 °F 55.4 °F 42% 29.81 in 10.0 mi SSE 20.7 mph 32.2 mph N/A   Scattered Clouds
3:55 PM 78.8 °F - 55.4 °F 44% 29.81 in 10.0 mi SSE 19.6 mph 29.9 mph N/A   Overcast
4:15 PM 78.8 °F - 55.4 °F 44% 29.81 in 10.0 mi SSE 20.7 mph 28.8 mph N/A   Overcast
4:35 PM 78.8 °F - 57.2 °F 47% 29.82 in 10.0 mi South 19.6 mph 26.5 mph N/A   Overcast
4:55 PM 77.0 °F - 57.2 °F 50% 29.81 in 10.0 mi South 16.1 mph 23.0 mph N/A   Overcast
5:15 PM 77.0 °F - 59.0 °F 54% 29.80 in 10.0 mi SSE 11.5 mph 19.6 mph N/A   Overcast
5:35 PM 77.0 °F - 59.0 °F 54% 29.80 in 10.0 mi SSE 12.7 mph 19.6 mph N/A   Overcast
5:55 PM 77.0 °F - 59.0 °F 54% 29.79 in 10.0 mi SE 15.0 mph - N/A   Overcast
6:15 PM 77.0 °F - 59.0 °F 54% 29.79 in 10.0 mi SSE 13.8 mph - N/A   Overcast
6:35 PM 77.0 °F - 59.0 °F 54% 29.78 in 10.0 mi SE 15.0 mph 18.4 mph N/A   Overcast
6:55 PM 77.0 °F - 59.0 °F 54% 29.78 in 10.0 mi SE 13.8 mph 21.9 mph N/A   Overcast
7:15 PM 77.0 °F - 59.0 °F 54% 29.77 in 10.0 mi SE 12.7 mph - N/A   Overcast
7:35 PM 77.0 °F - 59.0 °F 54% 29.77 in 10.0 mi SE 13.8 mph 19.6 mph N/A   Overcast
7:55 PM 77.0 °F - 59.0 °F 54% 29.77 in 10.0 mi ESE 15.0 mph 19.6 mph N/A   Overcast
8:15 PM 75.2 °F - 59.0 °F 57% 29.77 in 10.0 mi SE 11.5 mph 19.6 mph N/A   Overcast
8:35 PM 73.4 °F - 59.0 °F 61% 29.77 in 10.0 mi SE 15.0 mph - N/A   Mostly Cloudy
8:55 PM 73.4 °F - 59.0 °F 61% 29.77 in 10.0 mi ESE 13.8 mph 19.6 mph N/A   Mostly Cloudy
9:15 PM 73.4 °F - 59.0 °F 61% 29.77 in 10.0 mi SE 10.4 mph - N/A   Mostly Cloudy
9:35 PM 73.4 °F - 59.0 °F 61% 29.78 in 10.0 mi SE 12.7 mph 17.3 mph N/A   Overcast
9:55 PM 73.4 °F - 59.0 °F 61% 29.79 in 10.0 mi SE 13.8 mph 18.4 mph N/A   Mostly Cloudy
10:15 PM 73.4 °F - 59.0 °F 61% 29.80 in 10.0 mi SE 19.6 mph 24.2 mph N/A   Mostly Cloudy
10:35 PM 73.4 °F - 60.8 °F 65% 29.81 in 10.0 mi SSE 12.7 mph 20.7 mph N/A   Mostly Cloudy
10:55 PM 73.4 °F - 60.8 °F 65% 29.81 in 10.0 mi SSE 15.0 mph 19.6 mph N/A   Scattered Clouds
11:15 PM 71.6 °F - 60.8 °F 69% 29.81 in 10.0 mi SSE 16.1 mph 21.9 mph N/A   Scattered Clouds
11:35 PM 71.6 °F - 60.8 °F 69% 29.81 in 10.0 mi South 12.7 mph 18.4 mph N/A   Clear
11:55 PM 71.6 °F - 60.8 °F 69% 29.81 in 10.0 mi South 8.1 mph - N/A   Scattered Clouds